Time;durP1;ratioP1;P1;durP2;ratioP2;P2;SDS_P1;SDS_P2;PMS_P1;PMS_P2;Temp;Humidity;BMP_temperature;BMP_pressure;BME280_temperature;BME280_humidity;BME280_pressure;Samples;Min_cycle;Max_cycle;Signal;HPM_P1;HPM_P2
2022/03/28 00:01:54;;;;;;;18.30;10.60;;;;;;;;;;5045325;28;20117;-66
2022/03/28 00:04:20;;;;;;;16.55;10.00;;;;;;;;;;5050114;28;20021;-64
2022/03/28 00:06:46;;;;;;;17.30;11.23;;;;;;;;;;5046875;28;20602;-65
2022/03/28 00:09:12;;;;;;;17.88;10.95;;;;;;;;;;5043297;28;20025;-65
2022/03/28 00:11:38;;;;;;;15.20;10.00;;;;;;;;;;5045642;28;20028;-65
2022/03/28 00:14:04;;;;;;;16.88;9.68;;;;;;;;;;5046861;28;20037;-65
2022/03/28 00:16:30;;;;;;;19.75;10.98;;;;;;;;;;5047219;28;20046;-65
2022/03/28 00:18:56;;;;;;;16.70;10.00;;;;;;;;;;5050855;28;20028;-65
2022/03/28 00:21:23;;;;;;;19.48;10.82;;;;;;;;;;5046024;28;20388;-64
2022/03/28 00:23:49;;;;;;;18.55;10.70;;;;;;;;;;5043917;28;20021;-65
2022/03/28 00:26:14;;;;;;;16.15;9.55;;;;;;;;;;5044738;28;20095;-64
2022/03/28 00:28:40;;;;;;;19.52;10.30;;;;;;;;;;5044554;28;20022;-64
2022/03/28 00:31:07;;;;;;;16.92;9.88;;;;;;;;;;5051167;28;20095;-64
2022/03/28 00:33:33;;;;;;;18.17;9.68;;;;;;;;;;5044903;28;20021;-64
2022/03/28 00:35:59;;;;;;;18.42;10.18;;;;;;;;;;5044307;28;20025;-64
2022/03/28 00:38:25;;;;;;;16.30;10.73;;;;;;;;;;5047233;28;20353;-66
2022/03/28 00:40:51;;;;;;;16.15;10.93;;;;;;;;;;5045563;28;20033;-65
2022/03/28 00:43:17;;;;;;;18.63;10.82;;;;;;;;;;5048692;28;20021;-64
2022/03/28 00:45:43;;;;;;;15.60;10.45;;;;;;;;;;5045606;28;20104;-65
2022/03/28 00:48:10;;;;;;;16.02;10.20;;;;;;;;;;5043843;28;20036;-66
2022/03/28 00:50:37;;;;;;;17.02;10.00;;;;;;;;;;5045081;28;20396;-65
2022/03/28 00:53:05;;;;;;;15.02;10.82;;;;;;;;;;5043655;28;20561;-65
2022/03/28 00:55:31;;;;;;;17.90;10.25;;;;;;;;;;5047185;28;20124;-65
2022/03/28 00:57:57;;;;;;;15.80;10.10;;;;;;;;;;5049233;28;20032;-66
2022/03/28 01:00:23;;;;;;;15.52;9.63;;;;;;;;;;5045537;28;20021;-65
2022/03/28 01:02:49;;;;;;;15.95;10.15;;;;;;;;;;5043939;28;20032;-64
2022/03/28 01:05:15;;;;;;;20.40;10.07;;;;;;;;;;5043951;28;20472;-66
2022/03/28 01:07:42;;;;;;;15.93;10.40;;;;;;;;;;5044178;28;20025;-66
2022/03/28 01:10:10;;;;;;;19.50;10.80;;;;;;;;;;5050398;28;20021;-66
2022/03/28 01:12:37;;;;;;;16.73;10.20;;;;;;;;;;5045857;28;20029;-66
2022/03/28 01:15:04;;;;;;;18.17;10.27;;;;;;;;;;5043328;28;20376;-66
2022/03/28 01:20:15;;;;;;;14.98;9.60;;;;;;;;;;5043489;28;20040;-65
2022/03/28 01:22:41;;;;;;;17.63;9.95;;;;;;;;;;5043169;28;20029;-66
2022/03/28 01:25:07;;;;;;;14.80;9.55;;;;;;;;;;5051776;28;20028;-65
2022/03/28 01:27:36;;;;;;;18.17;10.25;;;;;;;;;;5043096;28;20104;-66
2022/03/28 01:30:02;;;;;;;;;;;;;;;;;;5044092;28;20182;-65
2022/03/28 01:32:27;;;;;;;15.30;9.48;;;;;;;;;;5043136;28;20023;-65
2022/03/28 01:34:53;;;;;;;16.23;9.30;;;;;;;;;;5043242;28;20025;-65
2022/03/28 01:37:19;;;;;;;15.10;9.30;;;;;;;;;;5048968;28;20033;-65
2022/03/28 01:39:45;;;;;;;19.02;10.13;;;;;;;;;;5046636;28;20017;-65
2022/03/28 01:42:11;;;;;;;14.55;9.77;;;;;;;;;;5043109;28;20025;-66
2022/03/28 01:44:37;;;;;;;17.83;10.45;;;;;;;;;;5043416;28;20021;-66
2022/03/28 01:47:04;;;;;;;16.10;9.90;;;;;;;;;;5043229;28;20507;-66
2022/03/28 01:49:31;;;;;;;17.77;10.40;;;;;;;;;;5045620;28;20041;-66
2022/03/28 01:51:57;;;;;;;16.75;10.07;;;;;;;;;;5047913;28;20052;-66
2022/03/28 01:54:23;;;;;;;16.50;9.93;;;;;;;;;;5043908;28;20039;-65
2022/03/28 01:56:49;;;;;;;16.15;9.88;;;;;;;;;;5043980;28;20033;-66
2022/03/28 01:59:15;;;;;;;16.23;9.93;;;;;;;;;;5043050;28;20108;-65
2022/03/28 02:01:41;;;;;;;15.70;9.40;;;;;;;;;;5043310;28;20022;-65
2022/03/28 02:04:07;;;;;;;16.77;10.27;;;;;;;;;;5051162;28;20368;-65
2022/03/28 02:06:34;;;;;;;16.55;10.52;;;;;;;;;;5042325;28;20029;-65
2022/03/28 02:09:00;;;;;;;16.60;9.85;;;;;;;;;;5042188;28;20029;-65
2022/03/28 02:11:26;;;;;;;15.75;9.77;;;;;;;;;;5043851;28;20036;-65
2022/03/28 02:13:51;;;;;;;15.50;9.75;;;;;;;;;;5042606;28;20053;-66
2022/03/28 02:16:17;;;;;;;16.08;9.65;;;;;;;;;;5047885;28;20345;-65
2022/03/28 02:18:43;;;;;;;15.25;9.73;;;;;;;;;;5044585;28;20033;-65
2022/03/28 02:21:10;;;;;;;17.67;9.77;;;;;;;;;;5044418;28;20401;-65
2022/03/28 02:23:36;;;;;;;16.30;9.75;;;;;;;;;;5042609;28;20025;-65
2022/03/28 02:26:03;;;;;;;16.63;9.98;;;;;;;;;;5044144;28;20539;-65
2022/03/28 02:28:29;;;;;;;20.27;9.43;;;;;;;;;;5045735;28;20048;-65
2022/03/28 02:30:55;;;;;;;18.33;10.43;;;;;;;;;;5047518;28;20049;-65
2022/03/28 02:33:21;;;;;;;16.17;9.68;;;;;;;;;;5042547;28;20029;-65
2022/03/28 02:35:48;;;;;;;17.40;9.48;;;;;;;;;;5043748;28;20592;-65
2022/03/28 02:38:14;;;;;;;14.98;9.80;;;;;;;;;;5043524;28;20029;-65
2022/03/28 02:40:40;;;;;;;14.63;9.27;;;;;;;;;;5042816;28;20083;-66
2022/03/28 02:43:06;;;;;;;16.63;9.27;;;;;;;;;;5050508;28;20029;-66
2022/03/28 02:45:36;;;;;;;17.48;9.70;;;;;;;;;;5042267;28;20108;-65
2022/03/28 02:48:02;;;;;;;15.80;9.95;;;;;;;;;;5041618;28;20062;-66
2022/03/28 02:50:29;;;;;;;14.80;9.27;;;;;;;;;;5042438;28;20036;-65
2022/03/28 02:52:55;;;;;;;19.67;9.40;;;;;;;;;;5042709;28;20033;-65
2022/03/28 02:55:21;;;;;;;16.15;9.43;;;;;;;;;;5047207;28;20464;-66
2022/03/28 02:57:47;;;;;;;15.65;9.27;;;;;;;;;;5045556;28;20032;-66
2022/03/28 03:00:14;;;;;;;15.48;10.00;;;;;;;;;;5042179;28;20025;-65
2022/03/28 03:02:42;;;;;;;13.80;8.95;;;;;;;;;;5042296;28;20515;-65
2022/03/28 03:05:08;;;;;;;17.00;9.63;;;;;;;;;;5042437;28;20033;-65
2022/03/28 03:07:34;;;;;;;16.48;10.23;;;;;;;;;;5043169;28;20378;-66
2022/03/28 03:10:00;;;;;;;15.30;9.57;;;;;;;;;;5050864;28;20027;-65
2022/03/28 03:12:26;;;;;;;16.52;10.20;;;;;;;;;;5046054;28;20121;-65
2022/03/28 03:14:52;;;;;;;17.67;10.10;;;;;;;;;;5046089;28;20029;-66
2022/03/28 03:17:19;;;;;;;14.15;8.93;;;;;;;;;;5045759;28;20050;-65
2022/03/28 03:19:45;;;;;;;16.70;9.75;;;;;;;;;;5045894;28;20134;-67
2022/03/28 03:22:14;;;;;;;15.80;10.27;;;;;;;;;;5053367;28;20393;-65
2022/03/28 03:24:40;;;;;;;16.00;9.43;;;;;;;;;;5047257;28;20047;-66
2022/03/28 03:27:06;;;;;;;16.60;9.65;;;;;;;;;;5045824;28;20025;-66
2022/03/28 03:29:31;;;;;;;17.92;9.45;;;;;;;;;;5046739;28;20036;-65
2022/03/28 03:31:57;;;;;;;15.48;9.98;;;;;;;;;;5043503;28;20070;-65
2022/03/28 03:34:23;;;;;;;15.07;10.18;;;;;;;;;;5050036;28;20029;-65
2022/03/28 03:36:49;;;;;;;17.92;9.85;;;;;;;;;;5047651;28;20049;-65
2022/03/28 03:39:16;;;;;;;18.92;10.10;;;;;;;;;;5043991;28;20503;-66
2022/03/28 03:41:42;;;;;;;15.98;9.32;;;;;;;;;;5045738;28;20068;-66
2022/03/28 03:44:09;;;;;;;15.23;9.35;;;;;;;;;;5042029;28;20013;-66
2022/03/28 03:46:35;;;;;;;17.17;9.65;;;;;;;;;;5047147;28;20109;-65
2022/03/28 03:49:01;;;;;;;14.75;9.02;;;;;;;;;;5051663;28;20020;-65
2022/03/28 03:51:27;;;;;;;14.40;8.90;;;;;;;;;;5044859;28;20112;-65
2022/03/28 03:53:53;;;;;;;16.52;9.48;;;;;;;;;;5045271;28;20813;-66
2022/03/28 03:56:19;;;;;;;14.32;9.45;;;;;;;;;;5044691;28;20481;-66
2022/03/28 03:58:45;;;;;;;17.05;9.85;;;;;;;;;;5045071;28;20037;-65
2022/03/28 04:01:11;;;;;;;16.08;10.07;;;;;;;;;;5052823;28;20105;-65
2022/03/28 04:03:38;;;;;;;16.27;9.90;;;;;;;;;;5045349;28;20415;-66
2022/03/28 04:06:04;;;;;;;15.82;9.35;;;;;;;;;;5044878;28;20440;-66
2022/03/28 04:08:30;;;;;;;18.05;9.27;;;;;;;;;;5043645;28;20033;-66
2022/03/28 04:10:56;;;;;;;17.38;9.77;;;;;;;;;;5045453;28;20022;-65
2022/03/28 04:13:22;;;;;;;18.65;9.38;;;;;;;;;;5050418;28;20531;-65
2022/03/28 04:15:48;;;;;;;16.85;9.82;;;;;;;;;;5048237;28;20489;-65
2022/03/28 04:18:14;;;;;;;14.98;9.27;;;;;;;;;;5044568;28;20029;-66
2022/03/28 04:20:40;;;;;;;16.48;9.60;;;;;;;;;;5045967;28;20086;-65
2022/03/28 04:23:07;;;;;;;16.27;9.50;;;;;;;;;;5045380;28;20484;-65
2022/03/28 04:25:33;;;;;;;15.63;9.35;;;;;;;;;;5047038;28;20030;-65
2022/03/28 04:27:59;;;;;;;14.93;9.23;;;;;;;;;;5050931;28;20025;-66
2022/03/28 04:30:25;;;;;;;15.57;9.50;;;;;;;;;;5045486;28;20149;-65
2022/03/28 04:32:51;;;;;;;14.15;8.60;;;;;;;;;;5044578;28;20029;-65
2022/03/28 04:35:19;;;;;;;15.90;9.90;;;;;;;;;;5044672;28;20488;-66
2022/03/28 04:37:45;;;;;;;16.10;9.48;;;;;;;;;;5044231;28;20021;-66
2022/03/28 04:40:12;;;;;;;15.82;9.80;;;;;;;;;;5051903;28;20028;-65
2022/03/28 04:42:38;;;;;;;18.85;10.05;;;;;;;;;;5045879;28;20052;-65
2022/03/28 04:45:05;;;;;;;16.83;10.35;;;;;;;;;;5043526;28;20731;-65
2022/03/28 04:47:31;;;;;;;16.35;10.07;;;;;;;;;;5044270;28;20057;-65
2022/03/28 04:49:58;;;;;;;14.68;9.32;;;;;;;;;;5044113;28;20065;-65
2022/03/28 04:52:24;;;;;;;17.27;9.75;;;;;;;;;;5049144;28;20087;-65
2022/03/28 04:54:50;;;;;;;17.42;10.13;;;;;;;;;;5047907;28;20368;-65
2022/03/28 04:57:16;;;;;;;17.92;9.70;;;;;;;;;;5044053;28;20357;-64
2022/03/28 04:59:42;;;;;;;20.45;9.63;;;;;;;;;;5043433;28;20527;-64
2022/03/28 05:02:08;;;;;;;16.40;9.20;;;;;;;;;;5044001;28;20032;-64
2022/03/28 05:04:34;;;;;;;15.50;9.07;;;;;;;;;;5046189;28;20031;-65
2022/03/28 05:07:00;;;;;;;17.35;10.23;;;;;;;;;;5049741;28;20044;-65
2022/03/28 05:09:26;;;;;;;16.08;9.68;;;;;;;;;;5042540;28;20443;-65
2022/03/28 05:11:53;;;;;;;14.32;9.55;;;;;;;;;;5044990;28;20140;-65
2022/03/28 05:14:21;;;;;;;16.67;9.57;;;;;;;;;;5043586;28;20082;-65
2022/03/28 05:16:47;;;;;;;15.85;10.15;;;;;;;;;;5044107;28;20440;-65
2022/03/28 05:19:13;;;;;;;16.80;10.07;;;;;;;;;;5050324;28;20090;-64
2022/03/28 05:21:39;;;;;;;16.45;9.60;;;;;;;;;;5045184;28;20063;-65
2022/03/28 05:24:05;;;;;;;16.52;9.70;;;;;;;;;;5043422;28;20032;-65
2022/03/28 05:26:31;;;;;;;18.20;9.88;;;;;;;;;;5043117;28;20447;-65
2022/03/28 05:28:57;;;;;;;15.05;9.48;;;;;;;;;;5043787;28;20088;-65
2022/03/28 05:31:23;;;;;;;16.67;9.70;;;;;;;;;;5047339;28;20139;-65
2022/03/28 05:33:49;;;;;;;16.98;10.30;;;;;;;;;;5046710;28;20021;-64
2022/03/28 05:36:15;;;;;;;22.10;10.13;;;;;;;;;;5043216;28;20095;-65
2022/03/28 05:38:42;;;;;;;18.00;10.18;;;;;;;;;;5042785;28;20024;-64
2022/03/28 05:41:09;;;;;;;15.82;9.85;;;;;;;;;;5042859;28;20031;-66
2022/03/28 05:43:36;;;;;;;18.02;10.43;;;;;;;;;;5045335;28;20777;-65
2022/03/28 05:46:03;;;;;;;16.90;9.88;;;;;;;;;;5050235;28;20060;-66
2022/03/28 05:48:29;;;;;;;17.65;10.10;;;;;;;;;;5043213;28;20071;-64
2022/03/28 05:50:55;;;;;;;18.70;11.23;;;;;;;;;;5044827;28;20362;-65
2022/03/28 05:53:21;;;;;;;18.58;10.07;;;;;;;;;;5043471;28;20576;-64
2022/03/28 05:55:48;;;;;;;17.75;10.20;;;;;;;;;;5044284;28;20044;-64
2022/03/28 05:58:14;;;;;;;16.42;9.95;;;;;;;;;;5034096;28;20029;-65
2022/03/28 06:00:40;;;;;;;20.50;10.73;;;;;;;;;;5032784;28;20017;-65
2022/03/28 06:03:06;;;;;;;17.15;9.95;;;;;;;;;;5033322;28;20036;-65
2022/03/28 06:05:33;;;;;;;16.30;9.80;;;;;;;;;;5032134;28;20366;-69
2022/03/28 06:08:00;;;;;;;15.02;9.23;;;;;;;;;;5029487;28;20535;-68
2022/03/28 06:10:26;;;;;;;17.98;10.77;;;;;;;;;;5028374;28;20034;-68
2022/03/28 06:12:52;;;;;;;20.42;10.77;;;;;;;;;;5047147;28;20091;-69
2022/03/28 06:15:18;;;;;;;14.50;10.00;;;;;;;;;;5042472;28;20451;-69
2022/03/28 06:17:44;;;;;;;18.15;10.25;;;;;;;;;;5042705;28;20369;-69
2022/03/28 06:20:13;;;;;;;20.70;11.00;;;;;;;;;;5044629;28;20047;-69
2022/03/28 06:22:40;;;;;;;25.15;13.27;;;;;;;;;;5023454;28;20057;-69
2022/03/28 06:25:06;;;;;;;20.02;12.02;;;;;;;;;;5050627;28;20028;-69
2022/03/28 06:27:32;;;;;;;21.38;12.35;;;;;;;;;;5043924;28;20537;-69
2022/03/28 06:29:58;;;;;;;19.98;11.70;;;;;;;;;;5044383;28;20021;-69
2022/03/28 06:32:24;;;;;;;17.05;10.13;;;;;;;;;;5043891;28;20040;-69
2022/03/28 06:34:52;;;;;;;19.48;9.55;;;;;;;;;;5042380;28;20022;-69
2022/03/28 06:37:21;;;;;;;20.20;11.00;;;;;;;;;;5046806;28;20578;-69
2022/03/28 06:39:47;;;;;;;17.10;10.32;;;;;;;;;;5045234;28;20033;-69
2022/03/28 06:42:14;;;;;;;20.38;11.13;;;;;;;;;;5042676;28;20040;-69
2022/03/28 06:44:40;;;;;;;18.75;11.68;;;;;;;;;;5046000;28;20028;-69
2022/03/28 06:47:06;;;;;;;17.17;10.38;;;;;;;;;;5047598;28;20036;-69
2022/03/28 06:49:32;;;;;;;16.20;10.75;;;;;;;;;;5049873;28;20037;-69
2022/03/28 06:51:58;;;;;;;16.88;11.35;;;;;;;;;;5051810;28;20364;-70
2022/03/28 06:54:25;;;;;;;20.63;11.90;;;;;;;;;;5046298;28;20506;-69
2022/03/28 06:56:51;;;;;;;18.67;11.18;;;;;;;;;;5046523;28;20120;-69
2022/03/28 06:59:17;;;;;;;18.63;11.98;;;;;;;;;;5046590;28;20036;-70
2022/03/28 07:01:43;;;;;;;20.45;14.27;;;;;;;;;;5046129;28;20629;-70
2022/03/28 07:04:12;;;;;;;18.25;13.32;;;;;;;;;;5052659;28;20146;-70
2022/03/28 07:06:38;;;;;;;19.75;12.90;;;;;;;;;;5048840;28;20025;-69
2022/03/28 07:09:05;;;;;;;16.75;12.50;;;;;;;;;;5044743;28;20028;-70
2022/03/28 07:11:33;;;;;;;15.85;11.43;;;;;;;;;;5045674;28;20028;-69
2022/03/28 07:14:00;;;;;;;17.42;11.77;;;;;;;;;;5046087;28;20087;-69
2022/03/28 07:16:26;;;;;;;17.85;12.25;;;;;;;;;;5050407;28;20033;-68
2022/03/28 07:18:52;;;;;;;20.10;12.57;;;;;;;;;;5050046;28;20025;-68
2022/03/28 07:21:18;;;;;;;15.93;12.20;;;;;;;;;;5046900;28;20040;-68
2022/03/28 07:23:44;;;;;;;19.80;11.80;;;;;;;;;;5047024;28;20463;-69
2022/03/28 07:26:11;;;;;;;19.75;11.93;;;;;;;;;;5045999;28;20499;-69
2022/03/28 07:28:39;;;;;;;14.98;11.45;;;;;;;;;;5047409;28;20025;-69
2022/03/28 07:31:07;;;;;;;;;;;;;;;;;;5053493;28;20049;-69
2022/03/28 07:33:34;;;;;;;15.00;11.68;;;;;;;;;;5047397;28;19916;-69
2022/03/28 07:36:00;;;;;;;15.38;11.50;;;;;;;;;;5047523;28;20416;-69
2022/03/28 07:38:26;;;;;;;15.50;11.73;;;;;;;;;;5044833;28;20026;-69
2022/03/28 07:40:52;;;;;;;16.33;12.60;;;;;;;;;;5045432;28;20465;-69
2022/03/28 07:43:17;;;;;;;19.58;12.32;;;;;;;;;;5051382;28;20044;-69
2022/03/28 07:45:44;;;;;;;18.50;12.77;;;;;;;;;;5047619;28;20472;-69
2022/03/28 07:48:10;;;;;;;16.50;12.63;;;;;;;;;;5045022;28;20079;-69
2022/03/28 07:50:36;;;;;;;16.30;12.38;;;;;;;;;;5039272;28;20500;-69
2022/03/28 07:53:03;;;;;;;15.45;12.10;;;;;;;;;;5034238;28;20055;-68
2022/03/28 07:55:30;;;;;;;16.65;11.88;;;;;;;;;;5048393;28;20021;-68
2022/03/28 07:57:59;;;;;;;15.65;11.35;;;;;;;;;;5050689;28;20021;-66
2022/03/28 08:00:25;;;;;;;15.77;11.63;;;;;;;;;;5045262;28;20488;-66
2022/03/28 08:02:51;;;;;;;18.48;12.32;;;;;;;;;;5044914;28;20024;-66
2022/03/28 08:05:17;;;;;;;17.35;12.25;;;;;;;;;;5045471;28;20040;-67
2022/03/28 08:07:43;;;;;;;16.92;11.43;;;;;;;;;;5045360;28;20017;-67
2022/03/28 08:10:09;;;;;;;19.27;12.30;;;;;;;;;;5050279;28;20079;-67
2022/03/28 08:12:37;;;;;;;16.45;11.95;;;;;;;;;;5044927;28;20056;-67
2022/03/28 08:15:03;;;;;;;16.10;11.27;;;;;;;;;;5044793;28;20032;-68
2022/03/28 08:17:29;;;;;;;17.50;12.45;;;;;;;;;;5045172;28;20048;-67
2022/03/28 08:19:55;;;;;;;19.10;11.90;;;;;;;;;;5045525;28;20080;-67
2022/03/28 08:22:21;;;;;;;17.15;11.98;;;;;;;;;;5039307;28;20049;-67
2022/03/28 08:24:47;;;;;;;18.42;12.00;;;;;;;;;;5047827;28;20093;-67
2022/03/28 08:27:13;;;;;;;16.27;12.30;;;;;;;;;;5045258;28;20060;-67
2022/03/28 08:29:39;;;;;;;16.70;12.20;;;;;;;;;;5044467;28;20021;-67
2022/03/28 08:32:06;;;;;;;16.10;11.57;;;;;;;;;;5044718;28;20047;-67
2022/03/28 08:34:32;;;;;;;17.52;11.63;;;;;;;;;;5046019;28;20025;-67
2022/03/28 08:36:58;;;;;;;15.07;11.40;;;;;;;;;;5050164;28;20135;-68
2022/03/28 08:39:24;;;;;;;14.95;11.70;;;;;;;;;;5044817;28;20091;-67
2022/03/28 08:41:50;;;;;;;17.02;12.38;;;;;;;;;;5044842;28;20033;-67
2022/03/28 08:44:16;;;;;;;17.85;11.70;;;;;;;;;;5043856;28;20036;-67
2022/03/28 08:46:43;;;;;;;14.38;11.82;;;;;;;;;;5044893;28;20044;-67
2022/03/28 08:49:09;;;;;;;17.75;12.52;;;;;;;;;;5052869;28;20357;-67
2022/03/28 08:51:36;;;;;;;18.92;12.98;;;;;;;;;;5044363;28;20473;-67
2022/03/28 08:54:02;;;;;;;16.90;12.90;;;;;;;;;;5044485;28;20033;-67
2022/03/28 08:56:28;;;;;;;16.92;13.10;;;;;;;;;;5045763;28;20047;-67
2022/03/28 08:58:54;;;;;;;16.05;12.60;;;;;;;;;;5044592;28;20400;-68
2022/03/28 09:01:21;;;;;;;18.40;12.80;;;;;;;;;;5049975;28;20036;-67
2022/03/28 09:03:48;;;;;;;18.48;12.68;;;;;;;;;;5046851;28;20021;-67
2022/03/28 09:06:42;;;;;;;20.30;13.75;;;;;;;;;;5044411;28;20033;-67
2022/03/28 09:09:12;;;;;;;17.73;13.15;;;;;;;;;;5041179;28;20041;-67
2022/03/28 09:11:38;;;;;;;16.73;13.00;;;;;;;;;;5044601;28;20032;-67
2022/03/28 09:14:04;;;;;;;17.02;12.70;;;;;;;;;;5045541;28;20107;-67
2022/03/28 09:16:34;;;;;;;19.60;13.55;;;;;;;;;;5045123;28;20047;-67
2022/03/28 09:19:01;;;;;;;18.40;13.05;;;;;;;;;;5049552;28;20013;-67
2022/03/28 09:21:27;;;;;;;20.52;12.80;;;;;;;;;;5045651;28;20032;-67
2022/03/28 09:23:54;;;;;;;18.08;12.93;;;;;;;;;;5044051;28;20423;-67
2022/03/28 09:26:24;;;;;;;16.60;12.68;;;;;;;;;;5045506;28;20032;-67
2022/03/28 09:28:53;;;;;;;20.48;13.10;;;;;;;;;;5043842;28;20366;-67
2022/03/28 09:31:22;;;;;;;18.67;13.57;;;;;;;;;;5048565;28;20072;-67
2022/03/28 09:33:52;;;;;;;22.00;14.38;;;;;;;;;;5046636;28;20028;-67
2022/03/28 09:36:33;;;;;;;16.85;12.88;;;;;;;;;;5043735;28;20040;-68
2022/03/28 09:38:59;;;;;;;20.13;12.50;;;;;;;;;;5045167;28;20082;-67
2022/03/28 09:41:25;;;;;;;19.95;13.10;;;;;;;;;;5043306;28;20108;-66
2022/03/28 09:43:55;;;;;;;18.42;12.75;;;;;;;;;;5042936;28;20121;-67
2022/03/28 09:46:29;;;;;;;18.75;13.13;;;;;;;;;;5048698;28;20397;-67
2022/03/28 09:48:57;;;;;;;17.02;12.77;;;;;;;;;;5048099;28;20053;-68
2022/03/28 09:51:25;;;;;;;18.05;11.48;;;;;;;;;;5043306;28;20033;-68
2022/03/28 09:53:51;;;;;;;;;;;;;;;;;;5043273;28;20071;-68
2022/03/28 09:56:18;;;;;;;17.92;12.20;;;;;;;;;;5042426;28;20643;-67
2022/03/28 09:58:46;;;;;;;20.73;12.52;;;;;;;;;;5043397;28;20025;-68
2022/03/28 10:01:13;;;;;;;18.13;12.82;;;;;;;;;;5050730;28;20017;-68
2022/03/28 10:03:39;;;;;;;19.25;13.25;;;;;;;;;;5044115;28;20021;-68
2022/03/28 10:06:07;;;;;;;18.92;12.65;;;;;;;;;;5043233;28;20475;-67
2022/03/28 10:08:34;;;;;;;17.70;12.35;;;;;;;;;;5041320;28;20036;-67
2022/03/28 10:11:00;;;;;;;19.92;13.40;;;;;;;;;;5044204;28;20022;-67
2022/03/28 10:13:26;;;;;;;19.85;13.48;;;;;;;;;;5047587;28;20036;-67
2022/03/28 10:15:53;;;;;;;25.65;13.30;;;;;;;;;;5048812;28;20043;-67
2022/03/28 10:18:19;;;;;;;21.92;13.70;;;;;;;;;;5041885;28;20100;-68
2022/03/28 10:20:47;;;;;;;18.88;12.88;;;;;;;;;;5037040;28;20029;-68
2022/03/28 10:23:16;;;;;;;22.88;14.40;;;;;;;;;;5028461;28;20061;-67
2022/03/28 10:25:43;;;;;;;18.25;13.70;;;;;;;;;;5021295;28;20037;-67
2022/03/28 10:28:09;;;;;;;20.15;13.88;;;;;;;;;;5031666;28;20451;-67
2022/03/28 10:30:36;;;;;;;19.15;13.65;;;;;;;;;;5040006;28;20041;-67
2022/03/28 10:33:09;;;;;;;19.35;12.40;;;;;;;;;;5035086;28;20064;-67
2022/03/28 10:35:35;;;;;;;18.48;13.82;;;;;;;;;;5035157;28;20401;-67
2022/03/28 10:38:17;;;;;;;18.98;13.88;;;;;;;;;;5039176;28;20030;-68
2022/03/28 10:40:53;;;;;;;21.70;13.73;;;;;;;;;;5037924;28;20029;-67
2022/03/28 10:43:19;;;;;;;17.88;12.75;;;;;;;;;;5044489;28;20025;-67
2022/03/28 10:45:59;;;;;;;25.65;16.15;;;;;;;;;;5041148;28;20039;-68
2022/03/28 10:48:34;;;;;;;21.30;16.35;;;;;;;;;;5034085;28;20040;-67
2022/03/28 10:51:07;;;;;;;20.40;14.45;;;;;;;;;;5034792;28;20036;-68
2022/03/28 10:53:40;;;;;;;20.73;14.40;;;;;;;;;;5039251;28;20029;-67
2022/03/28 10:56:20;;;;;;;19.75;13.35;;;;;;;;;;5039938;28;20079;-68
2022/03/28 10:58:56;;;;;;;21.15;14.40;;;;;;;;;;5008829;28;20021;-66
2022/03/28 11:01:27;;;;;;;16.95;13.43;;;;;;;;;;5043157;28;20025;-67
2022/03/28 11:03:54;;;;;;;21.60;12.48;;;;;;;;;;5044793;28;20579;-67
2022/03/28 11:06:40;;;;;;;15.68;11.02;;;;;;;;;;5036485;28;20036;-67
2022/03/28 11:09:06;;;;;;;18.48;13.30;;;;;;;;;;5037099;28;20025;-67
2022/03/28 11:11:33;;;;;;;18.60;12.75;;;;;;;;;;5040987;28;20424;-67
2022/03/28 11:14:05;;;;;;;20.58;14.52;;;;;;;;;;5025594;28;20029;-68
2022/03/28 11:16:40;;;;;;;17.23;13.00;;;;;;;;;;5029022;28;20040;-67
2022/03/28 11:19:38;;;;;;;15.15;10.55;;;;;;;;;;5049602;28;20057;-68
2022/03/28 11:22:04;;;;;;;16.40;10.98;;;;;;;;;;5002328;28;20074;-67
2022/03/28 11:24:49;;;;;;;22.92;14.55;;;;;;;;;;5040728;28;20071;-67
2022/03/28 11:27:16;;;;;;;20.33;14.60;;;;;;;;;;5041896;28;20040;-67
2022/03/28 11:29:46;;;;;;;19.73;14.52;;;;;;;;;;5042879;28;20021;-67
2022/03/28 11:32:19;;;;;;;19.20;12.70;;;;;;;;;;5044645;28;20073;-67
2022/03/28 11:34:52;;;;;;;20.42;12.55;;;;;;;;;;5031044;28;20413;-67
2022/03/28 11:37:19;;;;;;;17.75;12.70;;;;;;;;;;5049811;28;20033;-68
2022/03/28 11:40:11;;;;;;;21.27;13.90;;;;;;;;;;5047385;28;20025;-67
2022/03/28 11:42:38;;;;;;;16.63;11.90;;;;;;;;;;5044277;28;20055;-67
2022/03/28 11:45:12;;;;;;;17.70;13.50;;;;;;;;;;5044955;28;20486;-67
2022/03/28 11:47:39;;;;;;;17.50;12.88;;;;;;;;;;5045466;28;20020;-68
2022/03/28 11:50:08;;;;;;;18.33;12.82;;;;;;;;;;5045650;28;20017;-66
2022/03/28 11:52:34;;;;;;;20.65;13.00;;;;;;;;;;5048166;28;20029;-66
2022/03/28 11:55:00;;;;;;;17.00;12.95;;;;;;;;;;5050947;28;20028;-68
2022/03/28 12:00:16;;;;;;;16.70;11.85;;;;;;;;;;5045028;28;20048;-68
2022/03/28 12:02:49;;;;;;;20.95;13.18;;;;;;;;;;5045552;28;20017;-66
2022/03/28 12:05:24;;;;;;;16.08;11.63;;;;;;;;;;5044212;28;20036;-67
2022/03/28 12:07:50;;;;;;;15.68;11.85;;;;;;;;;;5045441;28;20028;-67
2022/03/28 12:10:16;;;;;;;19.60;12.60;;;;;;;;;;5050206;28;20078;-66
2022/03/28 12:12:43;;;;;;;14.82;11.63;;;;;;;;;;5047096;28;20431;-67
2022/03/28 12:15:13;;;;;;;13.33;10.27;;;;;;;;;;5043821;28;20071;-67
2022/03/28 12:17:39;;;;;;;15.13;11.07;;;;;;;;;;5044657;28;20112;-67
2022/03/28 12:20:06;;;;;;;15.93;11.18;;;;;;;;;;5045199;28;20033;-67
2022/03/28 12:22:46;;;;;;;20.70;12.20;;;;;;;;;;5048070;28;20033;-67
2022/03/28 12:25:25;;;;;;;15.63;11.23;;;;;;;;;;5045059;28;20028;-67
2022/03/28 12:27:58;;;;;;;14.93;10.98;;;;;;;;;;5046891;28;20021;-67
2022/03/28 12:30:28;;;;;;;17.05;12.20;;;;;;;;;;5044719;28;20060;-67
2022/03/28 12:32:54;;;;;;;14.45;10.20;;;;;;;;;;5044651;28;20032;-67
2022/03/28 12:35:21;;;;;;;16.98;10.88;;;;;;;;;;5044876;28;20561;-67
2022/03/28 12:38:15;;;;;;;16.30;10.82;;;;;;;;;;5044730;28;20500;-66
2022/03/28 12:40:44;;;;;;;19.02;11.57;;;;;;;;;;5012122;28;20457;-67
2022/03/28 12:43:10;;;;;;;16.67;12.23;;;;;;;;;;5052235;28;20047;-66
2022/03/28 12:45:38;;;;;;;14.88;11.30;;;;;;;;;;5045195;28;20025;-66
2022/03/28 12:48:06;;;;;;;15.90;11.15;;;;;;;;;;5044558;28;20036;-66
2022/03/28 12:50:34;;;;;;;17.27;11.25;;;;;;;;;;5043769;28;20163;-66
2022/03/28 12:53:16;;;;;;;19.08;12.68;;;;;;;;;;5044299;28;20026;-67
2022/03/28 12:55:43;;;;;;;15.63;11.13;;;;;;;;;;5013704;28;20026;-66
2022/03/28 12:58:10;;;;;;;16.23;12.17;;;;;;;;;;5052084;28;20464;-67
2022/03/28 13:00:37;;;;;;;17.27;12.02;;;;;;;;;;5045841;28;20036;-66
2022/03/28 13:03:03;;;;;;;15.43;11.65;;;;;;;;;;5045821;28;20438;-66
2022/03/28 13:05:30;;;;;;;14.93;10.77;;;;;;;;;;5044094;28;20032;-66
2022/03/28 13:08:03;;;;;;;16.63;10.48;;;;;;;;;;5044207;28;20191;-66
2022/03/28 13:10:32;;;;;;;17.05;11.48;;;;;;;;;;5045553;28;20021;-66
2022/03/28 13:12:58;;;;;;;15.38;10.70;;;;;;;;;;5049264;28;20381;-66
2022/03/28 13:15:28;;;;;;;17.67;11.48;;;;;;;;;;5043795;28;20032;-66
2022/03/28 13:18:06;;;;;;;18.35;11.02;;;;;;;;;;5047321;28;20040;-66
2022/03/28 13:20:33;;;;;;;16.27;10.45;;;;;;;;;;5043931;28;20477;-67
2022/03/28 13:23:01;;;;;;;15.13;10.20;;;;;;;;;;5044025;28;20180;-66
2022/03/28 13:25:27;;;;;;;15.18;10.73;;;;;;;;;;5047480;28;20461;-66
2022/03/28 13:28:01;;;;;;;14.43;10.45;;;;;;;;;;5047579;28;20106;-66
2022/03/28 13:30:28;;;;;;;14.82;11.32;;;;;;;;;;5044580;28;20034;-66
2022/03/28 13:32:54;;;;;;;14.85;10.30;;;;;;;;;;5043806;28;20500;-66
2022/03/28 13:35:21;;;;;;;14.13;9.93;;;;;;;;;;5045155;28;20028;-65
2022/03/28 13:37:57;;;;;;;14.52;11.23;;;;;;;;;;5043285;28;20081;-66
2022/03/28 13:40:24;;;;;;;16.70;10.95;;;;;;;;;;5047778;28;20037;-66
2022/03/28 13:42:50;;;;;;;14.37;10.57;;;;;;;;;;5046592;28;20112;-66
2022/03/28 13:45:16;;;;;;;14.02;10.48;;;;;;;;;;5043470;28;20108;-66
2022/03/28 13:47:42;;;;;;;17.15;10.38;;;;;;;;;;5042370;28;20029;-66
2022/03/28 13:50:08;;;;;;;13.63;10.15;;;;;;;;;;5043536;28;20025;-66
2022/03/28 13:52:35;;;;;;;14.80;9.60;;;;;;;;;;5044769;28;20593;-66
2022/03/28 13:55:01;;;;;;;12.52;8.90;;;;;;;;;;5050738;28;20053;-66
2022/03/28 13:57:27;;;;;;;13.93;9.90;;;;;;;;;;5044415;28;20079;-66
2022/03/28 13:59:53;;;;;;;14.55;10.82;;;;;;;;;;5042985;28;20021;-66
2022/03/28 14:02:19;;;;;;;15.43;11.23;;;;;;;;;;5042901;28;20021;-65
2022/03/28 14:04:48;;;;;;;15.43;10.45;;;;;;;;;;5043234;28;20396;-66
2022/03/28 14:07:14;;;;;;;14.63;11.52;;;;;;;;;;5050471;28;20427;-66
2022/03/28 14:09:40;;;;;;;13.30;10.15;;;;;;;;;;5041699;28;20017;-65
2022/03/28 14:12:06;;;;;;;14.65;11.23;;;;;;;;;;5042956;28;20071;-66
2022/03/28 14:14:35;;;;;;;20.70;11.10;;;;;;;;;;5043084;28;20028;-66
2022/03/28 14:17:01;;;;;;;15.50;9.93;;;;;;;;;;5042855;28;20087;-66
2022/03/28 14:19:27;;;;;;;17.15;11.55;;;;;;;;;;5046594;28;20029;-67
2022/03/28 14:21:55;;;;;;;14.95;11.35;;;;;;;;;;5047074;28;20040;-67
2022/03/28 14:24:21;;;;;;;15.43;10.65;;;;;;;;;;5042470;28;20024;-66
2022/03/28 14:26:47;;;;;;;15.52;11.02;;;;;;;;;;5040092;28;20084;-66
2022/03/28 14:29:13;;;;;;;14.85;11.02;;;;;;;;;;5031311;28;20017;-66